Time;durP1;ratioP1;P1;durP2;ratioP2;P2;SDS_P1;SDS_P2;PMS_P1;PMS_P2;Temp;Humidity;BMP_temperature;BMP_pressure;BME280_temperature;BME280_humidity;BME280_pressure;Samples;Min_cycle;Max_cycle;Signal;HPM_P1;HPM_P2
2022/07/02 00:01:49;;;;;;;108.22;16.08;;;;;;;30.92;48.20;101353.59;4148137;28;20092;-68
2022/07/02 00:03:55;;;;;;;82.32;14.35;;;;;;;30.93;48.56;101351.59;4148069;28;20080;-68
2022/07/02 00:05:58;;;;;;;65.63;13.52;;;;;;;30.94;49.14;101353.28;4148010;28;20041;-68
2022/07/02 00:08:03;;;;;;;73.22;15.07;;;;;;;30.94;48.70;101353.28;4147918;28;20077;-68
2022/07/02 00:10:04;;;;;;;;;;;;;;;30.93;48.61;101351.59;4148404;28;20053;-68
2022/07/02 00:12:09;;;;;;;73.45;13.75;;;;;;;30.96;48.76;101353.75;4162632;28;19948;-68
2022/07/02 00:14:10;;;;;;;67.38;14.38;;;;;;;30.98;48.78;101349.44;4148120;28;20038;-68
2022/07/02 00:16:12;;;;;;;66.60;15.40;;;;;;;30.92;48.79;101332.97;4148052;28;20555;-68
2022/07/02 00:18:14;;;;;;;57.65;14.18;;;;;;;30.96;49.38;101339.63;4147783;28;20042;-68
2022/07/02 00:20:15;;;;;;;68.07;14.88;;;;;;;30.95;49.01;101337.97;4147670;28;20050;-68
2022/07/02 00:22:18;;;;;;;55.85;13.73;;;;;;;30.96;49.33;101340.44;4148136;28;20091;-68
2022/07/02 00:24:19;;;;;;;61.10;15.40;;;;;;;30.97;50.00;101336.44;4147639;28;20042;-68
2022/07/02 00:26:36;;;;;;;41.35;14.63;;;;;;;30.97;49.77;101336.44;4148142;28;20100;-68
2022/07/02 00:28:42;;;;;;;53.78;14.68;;;;;;;30.99;49.99;101327.63;4147660;28;20096;-68
2022/07/02 00:30:46;;;;;;;57.00;14.00;;;;;;;30.98;49.33;101326.00;4148093;28;20041;-68
2022/07/02 00:32:48;;;;;;;49.42;12.85;;;;;;;30.99;49.32;101322.00;4151797;28;20445;-68
2022/07/02 00:34:51;;;;;;;54.65;14.68;;;;;;;31.00;49.75;101326.47;4151028;28;20421;-68
2022/07/02 00:36:55;;;;;;;49.67;14.52;;;;;;;31.00;49.89;101323.63;4149915;28;20096;-68
2022/07/02 00:38:56;;;;;;;39.90;13.85;;;;;;;30.99;49.12;101314.34;4149882;28;20441;-68
2022/07/02 00:41:00;;;;;;;39.13;13.73;;;;;;;31.00;49.35;101320.81;4149898;28;20037;-68
2022/07/02 00:43:02;;;;;;;44.17;14.53;;;;;;;31.00;49.76;101329.28;4150456;28;20097;-67
2022/07/02 00:45:05;;;;;;;34.50;12.70;;;;;;;30.97;50.01;101311.00;4151480;28;20083;-68
2022/07/02 00:47:09;;;;;;;42.30;14.63;;;;;;;31.01;49.58;101325.28;4150795;28;20558;-69
2022/07/02 00:49:12;;;;;;;40.37;14.17;;;;;;;31.00;49.83;101309.50;4142588;28;20042;-68
2022/07/02 00:51:14;;;;;;;36.40;12.13;;;;;;;31.00;49.60;101309.50;4144775;28;20378;-68
2022/07/02 00:53:18;;;;;;;43.42;13.80;;;;;;;31.00;49.81;101307.50;4151126;28;20460;-68
2022/07/02 00:55:19;;;;;;;27.00;12.82;;;;;;;31.00;49.86;101310.34;4151244;28;20022;-68
2022/07/02 00:57:21;;;;;;;36.78;12.68;;;;;;;30.79;49.79;101282.03;4151488;28;20107;-68
2022/07/02 00:59:23;;;;;;;29.75;12.68;;;;;;;31.01;49.51;101313.97;4150446;28;20100;-68
2022/07/02 01:01:27;;;;;;;24.27;11.70;;;;;;;31.01;49.61;101330.94;4151001;28;20045;-68
2022/07/02 01:03:33;;;;;;;28.85;11.95;;;;;;;31.00;49.52;101315.16;4151494;28;20425;-67
2022/07/02 01:05:34;;;;;;;33.38;13.30;;;;;;;30.99;49.59;101302.19;4151309;28;20489;-68
2022/07/02 01:07:37;;;;;;;30.25;12.30;;;;;;;30.98;49.76;101309.84;4151190;28;20034;-68
2022/07/02 01:12:08;;;;;;;28.90;11.73;;;;;;;30.99;49.74;101313.50;4150645;28;20570;-67
2022/07/02 01:14:10;;;;;;;24.25;11.75;;;;;;;31.01;50.32;101313.97;4148666;28;20055;-68
2022/07/02 01:16:11;;;;;;;26.98;11.52;;;;;;;31.00;49.98;101323.63;4148614;28;20084;-67
2022/07/02 01:18:17;;;;;;;31.40;12.07;;;;;;;31.00;50.09;101323.63;4150087;28;20143;-68
2022/07/02 01:20:18;;;;;;;20.40;11.70;;;;;;;30.99;50.13;101331.28;4151091;28;20038;-67
2022/07/02 01:22:25;;;;;;;25.73;11.68;;;;;;;30.99;50.20;101322.81;4151097;28;20038;-68
2022/07/02 01:24:26;;;;;;;24.88;12.00;;;;;;;30.99;49.79;101331.28;4151016;28;20038;-68
2022/07/02 01:26:27;;;;;;;22.23;10.95;;;;;;;30.99;49.96;101327.63;4151060;28;20116;-68
2022/07/02 01:28:29;;;;;;;26.42;11.05;;;;;;;30.94;49.86;101316.53;4148615;28;20108;-67
2022/07/02 01:30:31;;;;;;;23.55;11.43;;;;;;;30.97;49.50;101310.19;4149509;28;20096;-68
2022/07/02 01:32:35;;;;;;;23.63;10.63;;;;;;;30.97;49.51;101318.66;4150433;28;20433;-68
2022/07/02 01:34:47;;;;;;;18.13;10.57;;;;;;;30.87;49.52;101303.75;4149940;28;20432;-68
2022/07/02 01:36:49;;;;;;;17.55;10.52;;;;;;;30.92;49.58;101316.03;4149769;28;20528;-68
2022/07/02 01:38:53;;;;;;;25.38;11.57;;;;;;;30.97;49.90;101316.66;4148560;28;20054;-68
2022/07/02 01:41:38;;;;;;;17.88;11.15;;;;;;;30.97;49.84;101313.84;4150546;28;20410;-68
2022/07/02 01:43:15;;;;;;;24.08;10.00;;;;;;;30.98;50.02;101314.69;4149243;28;20038;-67
2022/07/02 01:45:17;;;;;;;18.10;10.25;;;;;;;30.98;49.72;101321.16;4150894;28;20436;-68
2022/07/02 01:47:18;;;;;;;21.73;10.65;;;;;;;30.97;49.90;101311.00;4150592;28;20152;-68
2022/07/02 01:49:20;;;;;;;17.75;10.18;;;;;;;30.92;50.10;101304.72;4150712;28;20045;-68
2022/07/02 01:51:23;;;;;;;20.73;9.98;;;;;;;30.97;50.31;101313.00;4150736;28;20103;-68
2022/07/02 01:53:25;;;;;;;18.30;10.52;;;;;;;30.91;50.16;101314.38;4150642;28;20049;-68
2022/07/02 01:55:26;;;;;;;16.83;9.23;;;;;;;30.92;49.92;101313.19;4150581;28;20545;-68
2022/07/02 01:57:35;;;;;;;16.52;10.07;;;;;;;30.96;49.94;101322.66;4150561;28;20042;-69
2022/07/02 01:59:36;;;;;;;15.77;10.30;;;;;;;30.97;49.95;101329.97;4150522;28;20041;-69
2022/07/02 02:01:38;;;;;;;14.80;9.43;;;;;;;30.95;50.03;101323.84;4150526;28;20520;-66
2022/07/02 02:03:39;;;;;;;15.05;9.45;;;;;;;30.95;50.49;101337.97;4150317;28;20440;-66
2022/07/02 02:05:43;;;;;;;16.42;9.05;;;;;;;30.94;50.26;101331.50;4150133;28;20148;-66
2022/07/02 02:07:44;;;;;;;13.15;9.65;;;;;;;30.94;49.98;101337.13;4149989;28;20108;-69
2022/07/02 02:09:48;;;;;;;17.05;10.02;;;;;;;30.95;50.38;101326.66;4149868;28;20037;-69
2022/07/02 02:11:49;;;;;;;14.13;9.00;;;;;;;30.94;50.27;101331.50;4150334;28;20737;-68
2022/07/02 02:13:51;;;;;;;13.52;10.80;;;;;;;30.92;50.06;101339.47;4150270;28;20042;-67
2022/07/02 02:15:55;;;;;;;16.88;11.02;;;;;;;30.93;50.34;101343.13;4150214;28;20460;-67
2022/07/02 02:17:59;;;;;;;21.63;12.02;;;;;;;30.93;50.59;101340.28;4149806;28;20100;-67
2022/07/02 02:20:01;;;;;;;18.00;12.02;;;;;;;30.93;49.93;101340.28;4150279;28;20668;-67
2022/07/02 02:22:02;;;;;;;16.52;11.07;;;;;;;30.93;50.39;101337.47;4149990;28;20095;-67
2022/07/02 02:24:04;;;;;;;20.20;12.00;;;;;;;30.93;50.30;101331.81;4150068;28;20038;-67
2022/07/02 02:26:08;;;;;;;17.50;11.80;;;;;;;30.90;50.05;101329.69;4149867;28;20041;-66
2022/07/02 02:28:09;;;;;;;17.45;12.82;;;;;;;30.88;50.72;101313.91;4149619;28;20100;-67
2022/07/02 02:30:11;;;;;;;13.73;11.68;;;;;;;30.87;50.79;101300.91;4150172;28;20548;-67
2022/07/02 02:32:16;;;;;;;20.73;12.43;;;;;;;30.89;49.96;101311.91;4144128;28;20037;-67
2022/07/02 02:34:17;;;;;;;15.38;12.27;;;;;;;30.93;50.28;101312.03;4149814;28;20046;-67
2022/07/02 02:36:24;;;;;;;17.25;12.45;;;;;;;30.93;50.37;101328.97;4149876;28;20440;-67
2022/07/02 02:38:28;;;;;;;17.27;11.75;;;;;;;30.92;50.45;101316.03;4148830;28;20076;-67
2022/07/02 02:40:29;;;;;;;20.02;11.18;;;;;;;30.93;49.98;101331.81;4149905;28;20034;-68
2022/07/02 02:42:31;;;;;;;13.02;11.63;;;;;;;30.92;50.40;101332.97;4149666;28;20547;-67
2022/07/02 02:44:32;;;;;;;14.50;11.65;;;;;;;30.92;50.45;101332.97;4150078;28;20041;-67
2022/07/02 02:46:33;;;;;;;14.77;11.40;;;;;;;30.91;50.64;101342.63;4149680;28;20022;-68
2022/07/02 02:48:36;;;;;;;15.60;11.23;;;;;;;30.90;50.57;101332.50;4149185;28;20042;-67
2022/07/02 02:50:37;;;;;;;13.60;10.77;;;;;;;30.88;50.92;101342.16;4149808;28;20480;-67
2022/07/02 02:52:39;;;;;;;14.07;11.00;;;;;;;30.79;50.61;101338.56;4149595;28;20033;-67
2022/07/02 02:54:40;;;;;;;14.57;11.43;;;;;;;30.87;50.95;101353.78;4148488;28;20096;-67
2022/07/02 02:56:41;;;;;;;14.60;10.93;;;;;;;30.87;50.79;101345.31;4149414;28;20469;-67
2022/07/02 02:58:43;;;;;;;13.55;10.52;;;;;;;30.84;50.93;101344.00;4148916;28;20042;-67
2022/07/02 03:00:47;;;;;;;11.13;9.77;;;;;;;30.82;50.82;101337.84;4149581;28;20163;-67
2022/07/02 03:02:48;;;;;;;14.52;11.48;;;;;;;30.86;50.99;101346.47;4149121;28;20038;-67
2022/07/02 03:04:49;;;;;;;16.88;10.68;;;;;;;30.84;50.62;101344.00;4149192;28;20041;-67
2022/07/02 03:06:53;;;;;;;12.07;10.07;;;;;;;30.85;50.85;101345.66;4149536;28;20473;-67
2022/07/02 03:08:55;;;;;;;13.88;10.77;;;;;;;30.85;50.62;101334.34;4148838;28;20108;-67
2022/07/02 03:10:56;;;;;;;12.40;10.45;;;;;;;30.83;50.64;101331.03;4149546;28;20038;-67
2022/07/02 03:12:57;;;;;;;14.52;10.32;;;;;;;30.85;50.67;101331.53;4149636;28;20538;-67
2022/07/02 03:15:02;;;;;;;18.40;10.27;;;;;;;30.80;51.08;101326.06;4149282;28;20038;-67
2022/07/02 03:17:06;;;;;;;12.40;10.82;;;;;;;30.81;50.89;101333.38;4149117;28;20046;-67
2022/07/02 03:19:07;;;;;;;;;;;;;;;30.83;50.93;101345.16;4149277;28;20441;-67
2022/07/02 03:21:09;;;;;;;13.68;10.40;;;;;;;30.84;51.12;101320.59;4149085;28;19914;-67
2022/07/02 03:23:10;;;;;;;13.05;10.40;;;;;;;30.88;50.77;101325.22;4149030;28;20042;-68
2022/07/02 03:25:14;;;;;;;12.48;10.25;;;;;;;30.87;51.10;101326.34;4149097;28;20432;-68
2022/07/02 03:27:15;;;;;;;17.58;11.48;;;;;;;30.85;50.32;101331.53;4148795;28;20042;-68
2022/07/02 03:29:17;;;;;;;12.52;10.30;;;;;;;30.86;50.53;101340.84;4148559;28;20429;-69
2022/07/02 03:31:21;;;;;;;12.13;10.40;;;;;;;30.83;50.71;101345.16;4148115;28;20045;-69
2022/07/02 03:33:22;;;;;;;13.60;10.60;;;;;;;30.88;50.95;101344.13;4148804;28;20042;-68
2022/07/02 03:35:26;;;;;;;12.30;10.07;;;;;;;30.87;50.98;101336.84;4148904;28;20037;-68
2022/07/02 03:37:28;;;;;;;12.05;10.10;;;;;;;30.84;50.93;101327.06;4148975;28;20531;-68
2022/07/02 03:39:30;;;;;;;11.05;9.52;;;;;;;30.81;51.13;101324.91;4148849;28;20072;-67
2022/07/02 03:41:31;;;;;;;11.93;9.25;;;;;;;30.83;51.13;101331.03;4147531;28;20104;-67
2022/07/02 03:43:35;;;;;;;10.95;9.55;;;;;;;30.82;51.15;101334.19;4148724;28;20046;-67
2022/07/02 03:45:37;;;;;;;11.43;10.10;;;;;;;30.83;50.89;101335.84;4148482;28;20046;-67
2022/07/02 03:47:39;;;;;;;12.40;9.57;;;;;;;30.80;51.36;101317.59;4148794;28;20477;-67
2022/07/02 03:49:40;;;;;;;10.45;9.32;;;;;;;30.80;51.38;101323.25;4148147;28;20037;-67
2022/07/02 03:52:01;;;;;;;10.88;9.77;;;;;;;30.82;51.51;101335.03;4148445;28;20096;-68
2022/07/02 03:54:03;;;;;;;12.43;9.82;;;;;;;30.80;51.05;101331.72;4146357;28;20046;-68
2022/07/02 03:56:08;;;;;;;11.32;9.50;;;;;;;30.84;50.95;101337.53;4148696;28;20084;-68
2022/07/02 03:58:12;;;;;;;11.35;9.88;;;;;;;30.80;50.69;101326.06;4148082;28;20099;-68
2022/07/02 04:00:13;;;;;;;12.40;9.32;;;;;;;30.83;51.37;101335.84;4148117;28;20034;-68
2022/07/02 04:02:17;;;;;;;12.10;9.65;;;;;;;30.83;51.29;101341.50;4148121;28;20097;-68
2022/07/02 04:04:22;;;;;;;13.27;9.15;;;;;;;30.81;51.10;101341.84;4148545;28;20041;-67
2022/07/02 04:06:26;;;;;;;13.05;10.07;;;;;;;30.79;51.43;101337.69;4147739;28;20046;-70
2022/07/02 04:08:27;;;;;;;10.50;9.38;;;;;;;30.75;51.10;101329.09;4148000;28;20041;-70
2022/07/02 04:10:29;;;;;;;11.18;9.60;;;;;;;30.80;51.01;101340.19;4142473;28;20025;-68
2022/07/02 04:12:30;;;;;;;10.05;8.80;;;;;;;30.79;51.37;101338.56;4148485;28;20049;-68
2022/07/02 04:14:40;;;;;;;10.63;9.52;;;;;;;30.80;50.93;101348.69;4148514;28;20041;-69
2022/07/02 04:16:41;;;;;;;11.57;8.70;;;;;;;30.76;51.44;101333.56;4148544;28;20057;-68
2022/07/02 04:18:42;;;;;;;10.63;8.77;;;;;;;30.77;51.18;101338.03;4147768;28;20081;-68
2022/07/02 04:20:44;;;;;;;9.85;8.57;;;;;;;30.73;51.28;101322.94;4148694;28;20042;-68
2022/07/02 04:22:49;;;;;;;10.70;9.57;;;;;;;30.71;51.14;101322.47;4148441;28;20072;-67
2022/07/02 04:24:50;;;;;;;10.30;9.18;;;;;;;30.69;51.01;101321.09;4148213;28;20050;-68
2022/07/02 04:26:51;;;;;;;9.38;8.45;;;;;;;30.79;51.58;101330.06;4148211;28;20038;-68
2022/07/02 04:28:58;;;;;;;10.48;8.20;;;;;;;30.78;51.56;101328.41;4147684;28;20046;-69
2022/07/02 04:30:59;;;;;;;9.98;9.00;;;;;;;30.77;51.40;101315.44;4147692;28;20542;-67
2022/07/02 04:33:00;;;;;;;10.10;9.05;;;;;;;30.77;51.46;101308.97;4148558;28;20045;-69
2022/07/02 04:35:03;;;;;;;10.55;8.60;;;;;;;30.76;51.39;101310.16;4148189;28;20042;-68
2022/07/02 04:37:07;;;;;;;10.55;8.70;;;;;;;30.77;51.36;101315.44;4148511;28;20119;-68
2022/07/02 04:39:08;;;;;;;9.40;8.13;;;;;;;30.75;51.48;101306.50;4162371;28;20107;-68
2022/07/02 04:41:10;;;;;;;9.18;8.30;;;;;;;30.76;51.23;101299.66;4148550;28;20092;-67
2022/07/02 04:43:14;;;;;;;11.88;8.48;;;;;;;30.74;51.58;101293.50;4148350;28;20046;-68
2022/07/02 04:45:15;;;;;;;8.80;7.90;;;;;;;30.76;51.52;101301.66;4148017;28;20042;-67
2022/07/02 04:47:19;;;;;;;8.65;7.75;;;;;;;30.69;51.14;101290.84;4148335;28;20034;-68
2022/07/02 04:49:21;;;;;;;9.60;8.68;;;;;;;30.77;51.15;101303.31;4148099;28;20100;-68
2022/07/02 04:51:22;;;;;;;9.93;8.25;;;;;;;30.78;51.18;101299.31;4148264;28;20038;-68
2022/07/02 04:53:23;;;;;;;8.50;7.70;;;;;;;30.75;51.53;101295.19;4148164;28;20485;-69
2022/07/02 04:55:25;;;;;;;10.02;8.25;;;;;;;30.77;51.15;101304.16;4148368;28;20046;-69
2022/07/02 04:57:26;;;;;;;9.70;8.18;;;;;;;30.78;51.10;101290.84;4148447;28;20100;-68
2022/07/02 04:59:28;;;;;;;8.23;7.43;;;;;;;30.77;51.47;101304.16;4148161;28;20042;-68
2022/07/02 05:01:29;;;;;;;10.07;7.78;;;;;;;30.79;51.45;101312.25;4147594;28;20564;-67
2022/07/02 05:03:31;;;;;;;8.30;7.47;;;;;;;30.78;51.45;101293.66;4148353;28;20069;-68
2022/07/02 05:05:35;;;;;;;10.30;8.80;;;;;;;30.75;51.38;101294.38;4148389;28;20060;-68
2022/07/02 05:07:36;;;;;;;12.65;7.85;;;;;;;30.68;51.63;101289.19;4148121;28;20079;-68
2022/07/02 05:09:37;;;;;;;9.13;7.43;;;;;;;30.71;51.50;101282.91;4147572;28;20124;-68
2022/07/02 05:11:39;;;;;;;9.02;7.40;;;;;;;30.77;51.30;101298.50;4147999;28;20041;-67
2022/07/02 05:13:40;;;;;;;7.90;7.20;;;;;;;30.76;51.57;101298.84;4147830;28;20045;-68
2022/07/02 05:15:42;;;;;;;8.38;7.53;;;;;;;30.76;51.55;101296.84;4148136;28;20445;-67
2022/07/02 05:17:44;;;;;;;7.47;6.75;;;;;;;30.74;51.59;101281.38;4147971;28;20043;-68
2022/07/02 05:19:45;;;;;;;9.48;7.57;;;;;;;30.75;51.55;101289.53;4151233;28;20104;-68
2022/07/02 05:21:46;;;;;;;10.80;8.02;;;;;;;30.69;51.44;101273.06;4150790;28;20103;-68
2022/07/02 05:23:54;;;;;;;8.15;7.03;;;;;;;30.76;51.55;101279.88;4151087;28;20377;-67
2022/07/02 05:25:58;;;;;;;9.32;7.50;;;;;;;30.75;51.58;101283.06;4151315;28;20104;-67
2022/07/02 05:27:59;;;;;;;9.03;8.13;;;;;;;30.73;51.57;101279.75;4150408;28;20535;-67
2022/07/02 05:30:00;;;;;;;8.55;7.65;;;;;;;30.73;51.09;101274.91;4150880;28;20065;-68
2022/07/02 05:32:02;;;;;;;8.48;7.45;;;;;;;30.72;51.39;101269.63;4151238;28;20037;-67
2022/07/02 05:34:09;;;;;;;9.40;7.20;;;;;;;30.74;51.69;101279.38;4150681;28;20060;-67
2022/07/02 05:36:11;;;;;;;9.02;6.90;;;;;;;30.75;51.54;101275.41;4150682;28;20049;-69
2022/07/02 05:38:12;;;;;;;7.22;6.30;;;;;;;30.75;51.40;101266.94;4150438;28;20034;-68
2022/07/02 05:40:14;;;;;;;9.95;7.78;;;;;;;30.72;51.35;101267.63;4150272;28;20042;-69
2022/07/02 05:42:18;;;;;;;7.80;6.82;;;;;;;30.73;51.49;101262.78;4150078;28;20124;-68
2022/07/02 05:44:22;;;;;;;9.13;6.90;;;;;;;30.71;51.27;101249.00;4150641;28;20034;-69
2022/07/02 05:46:26;;;;;;;8.75;7.47;;;;;;;30.76;51.65;101264.94;4150582;28;20038;-68
2022/07/02 05:48:28;;;;;;;7.25;6.55;;;;;;;30.71;51.29;101254.66;4150146;28;20041;-68
2022/07/02 05:50:29;;;;;;;8.10;6.68;;;;;;;30.72;51.41;101263.97;4150424;28;20041;-67
2022/07/02 05:52:31;;;;;;;7.93;7.10;;;;;;;30.75;51.61;101266.94;4151159;28;20045;-67
2022/07/02 05:54:32;;;;;;;7.32;6.60;;;;;;;30.75;52.07;101266.13;4150800;28;20045;-68
2022/07/02 05:56:33;;;;;;;7.82;7.03;;;;;;;30.74;51.88;101262.44;4165006;28;20123;-67
2022/07/02 05:58:40;;;;;;;8.13;6.68;;;;;;;30.72;51.62;101256.31;4151003;28;20042;-67
2022/07/02 06:00:53;;;;;;;9.02;7.47;;;;;;;30.69;51.16;101248.47;4151678;28;20034;-67
2022/07/02 06:02:54;;;;;;;8.00;6.65;;;;;;;30.73;51.81;101252.31;4150377;28;20363;-68
2022/07/02 06:04:58;;;;;;;7.63;6.18;;;;;;;30.71;51.57;101240.53;4150228;28;20041;-67
2022/07/02 06:09:22;;;;;;;8.05;7.25;;;;;;;30.73;51.46;101235.38;4151516;28;20444;-67
2022/07/02 06:11:32;;;;;;;7.38;6.57;;;;;;;30.74;51.49;101234.19;4150084;28;20042;-67
2022/07/02 06:13:36;;;;;;;7.43;5.70;;;;;;;30.75;51.72;101230.22;4149893;28;20073;-68
2022/07/02 06:15:37;;;;;;;7.15;6.45;;;;;;;30.73;51.73;101224.06;4149831;28;20154;-68
2022/07/02 06:17:39;;;;;;;8.95;6.20;;;;;;;30.62;51.83;101200.19;4149782;28;20041;-68
2022/07/02 06:19:40;;;;;;;7.18;6.47;;;;;;;30.72;51.63;101211.13;4149544;28;20045;-68
2022/07/02 06:21:42;;;;;;;7.13;6.28;;;;;;;30.73;51.67;101212.75;4149708;28;20042;-68
2022/07/02 06:23:46;;;;;;;8.77;7.00;;;;;;;30.73;51.89;101212.75;4149782;28;20038;-68
2022/07/02 06:25:52;;;;;;;7.28;6.18;;;;;;;30.74;51.82;101211.59;4150028;28;20042;-69
2022/07/02 06:27:54;;;;;;;6.88;6.13;;;;;;;30.73;51.62;101207.13;4149354;28;20034;-68
2022/07/02 06:29:58;;;;;;;6.70;6.10;;;;;;;30.74;51.73;101214.41;4149484;28;20096;-69
2022/07/02 06:31:59;;;;;;;6.75;6.07;;;;;;;30.73;51.94;101200.63;4149422;28;20046;-68
2022/07/02 06:34:00;;;;;;;6.25;5.63;;;;;;;30.72;51.71;101208.28;4149694;28;20030;-68
2022/07/02 06:36:05;;;;;;;6.72;6.05;;;;;;;30.71;51.72;101217.94;4150125;28;20041;-69
2022/07/02 06:38:07;;;;;;;5.95;5.35;;;;;;;30.70;51.62;101207.78;4149841;28;20049;-67
2022/07/02 06:40:11;;;;;;;7.07;5.90;;;;;;;30.71;51.92;101203.81;4149617;28;20092;-67
2022/07/02 06:42:22;;;;;;;;;;;;;;;30.71;51.42;101211.44;4149785;28;20096;-67
2022/07/02 06:44:26;;;;;;;7.93;6.07;;;;;;;30.76;51.84;101212.09;4149830;28;19913;-68
2022/07/02 06:46:28;;;;;;;7.80;6.32;;;;;;;30.75;51.80;101207.63;4149471;28;20041;-68
2022/07/02 06:48:29;;;;;;;7.00;6.22;;;;;;;30.71;51.85;101195.34;4149513;28;20042;-68
2022/07/02 06:50:31;;;;;;;6.32;5.50;;;;;;;30.74;52.06;101208.75;4149376;28;20034;-69
2022/07/02 06:52:32;;;;;;;6.38;5.75;;;;;;;30.72;51.81;101204.63;4149237;28;20576;-69
2022/07/02 06:54:34;;;;;;;6.65;5.95;;;;;;;30.73;51.90;101206.28;4149762;28;20080;-68
2022/07/02 06:56:36;;;;;;;7.38;5.55;;;;;;;30.63;52.05;101190.53;4149103;28;20050;-69
2022/07/02 06:58:37;;;;;;;6.75;5.93;;;;;;;30.71;52.04;101208.59;4148968;28;20359;-69
2022/07/02 07:00:44;;;;;;;6.95;6.25;;;;;;;30.70;51.71;101204.97;4147395;28;20041;-67
2022/07/02 07:02:45;;;;;;;7.70;6.40;;;;;;;30.71;51.89;101206.63;4149147;28;20041;-68
2022/07/02 07:04:47;;;;;;;6.03;5.43;;;;;;;30.63;51.93;101196.19;4149644;28;20362;-68
2022/07/02 07:06:52;;;;;;;6.22;5.22;;;;;;;30.70;52.04;101202.13;4149094;28;20046;-69
2022/07/02 07:08:53;;;;;;;6.28;5.63;;;;;;;30.70;52.20;101198.47;4149256;28;20416;-69
2022/07/02 07:10:55;;;;;;;5.90;5.30;;;;;;;30.68;52.07;101204.47;4149023;28;20033;-68
2022/07/02 07:12:56;;;;;;;6.63;5.95;;;;;;;30.68;52.13;101204.47;4149094;28;20053;-67
2022/07/02 07:15:00;;;;;;;8.32;6.40;;;;;;;30.69;51.94;101194.81;4149329;28;20034;-69
2022/07/02 07:17:02;;;;;;;6.15;5.55;;;;;;;30.68;52.04;101198.81;4148986;28;20115;-66
2022/07/02 07:19:07;;;;;;;7.30;5.43;;;;;;;30.66;52.30;101192.69;4148323;28;20370;-67
2022/07/02 07:21:11;;;;;;;7.63;5.20;;;;;;;30.65;52.34;101196.66;4148998;28;20065;-68
2022/07/02 07:23:12;;;;;;;7.05;5.70;;;;;;;30.69;52.26;101199.63;4148816;28;20045;-67
2022/07/02 07:25:14;;;;;;;5.60;4.88;;;;;;;30.68;52.18;101197.97;4149272;28;20068;-67
2022/07/02 07:27:15;;;;;;;6.45;5.35;;;;;;;30.66;52.08;101198.34;4149164;28;20038;-68
2022/07/02 07:29:16;;;;;;;5.90;5.30;;;;;;;30.69;52.17;101200.47;4148831;28;20455;-68
2022/07/02 07:31:20;;;;;;;6.00;5.40;;;;;;;30.66;52.31;101189.03;4148199;28;20030;-67
2022/07/02 07:33:22;;;;;;;8.32;5.53;;;;;;;30.68;52.19;101193.16;4147907;28;20045;-68
2022/07/02 07:35:23;;;;;;;6.20;5.38;;;;;;;30.68;52.06;101204.47;4148698;28;20049;-67
2022/07/02 07:37:25;;;;;;;6.30;5.40;;;;;;;30.61;52.38;101188.06;4148919;28;20046;-68
2022/07/02 07:39:26;;;;;;;6.78;6.03;;;;;;;30.64;52.27;101193.00;4148285;28;20108;-68
2022/07/02 07:41:28;;;;;;;5.43;4.88;;;;;;;30.61;52.12;101187.25;4147493;28;20030;-69
2022/07/02 07:43:32;;;;;;;6.78;4.88;;;;;;;30.67;52.29;101196.34;4148458;28;20104;-68
2022/07/02 07:45:36;;;;;;;6.72;5.28;;;;;;;30.66;52.14;101194.69;4148694;28;20104;-69
2022/07/02 07:47:37;;;;;;;6.88;5.28;;;;;;;30.65;52.20;101193.84;4148917;28;20092;-68
2022/07/02 07:49:39;;;;;;;5.45;4.95;;;;;;;30.62;52.44;101201.00;4148201;28;20432;-68
2022/07/02 07:51:40;;;;;;;5.78;5.00;;;;;;;30.64;52.12;101187.34;4148748;28;20104;-69
2022/07/02 07:53:43;;;;;;;9.30;5.80;;;;;;;30.58;52.21;101180.25;4148738;28;20169;-68
2022/07/02 07:55:45;;;;;;;5.38;4.72;;;;;;;30.64;52.28;101187.34;4148317;28;20049;-68
2022/07/02 07:57:47;;;;;;;7.05;5.20;;;;;;;30.65;52.38;101188.19;4148141;28;20041;-69
2022/07/02 07:59:48;;;;;;;6.18;4.50;;;;;;;30.64;52.08;101181.72;4148202;28;20046;-69
2022/07/02 08:01:50;;;;;;;5.93;5.05;;;;;;;30.60;52.25;101171.44;4148141;28;20485;-69
2022/07/02 08:03:54;;;;;;;5.57;4.85;;;;;;;30.63;52.50;101168.75;4148476;28;20088;-69
2022/07/02 08:05:57;;;;;;;6.78;4.45;;;;;;;30.64;52.04;101172.41;4148212;28;20072;-69
2022/07/02 08:07:59;;;;;;;5.95;4.97;;;;;;;30.64;52.25;101180.88;4147983;28;20037;-68
2022/07/02 08:10:03;;;;;;;5.20;4.25;;;;;;;30.64;52.02;101181.72;4148113;28;20092;-68
2022/07/02 08:12:08;;;;;;;5.00;4.50;;;;;;;30.64;51.89;101186.53;4143815;28;20100;-68
2022/07/02 08:14:09;;;;;;;;;;;;;;;30.61;52.20;101178.78;4149221;28;20092;-68
2022/07/02 08:16:18;;;;;;;6.28;4.28;;;;;;;30.41;52.10;101148.47;4148152;28;19913;-69
2022/07/02 08:18:20;;;;;;;5.55;4.70;;;;;;;30.52;52.38;101155.41;4147491;28;20092;-69
2022/07/02 08:20:21;;;;;;;5.78;4.88;;;;;;;30.64;52.23;101183.72;4147908;28;20417;-69
2022/07/02 08:22:26;;;;;;;5.95;4.45;;;;;;;30.63;52.31;101179.25;4148203;28;20042;-69
2022/07/02 08:24:27;;;;;;;;;;;;;;;30.62;51.98;101177.59;4148949;28;20021;-69
2022/07/02 08:26:28;;;;;;;6.35;4.80;;;;;;;30.67;52.36;101180.22;4148488;28;19914;-68
2022/07/02 08:28:29;;;;;;;6.15;4.63;;;;;;;30.61;51.90;101175.94;4147813;28;20041;-68
2022/07/02 08:30:31;;;;;;;7.00;4.88;;;;;;;30.64;52.21;101158.28;4147889;28;20038;-69
2022/07/02 08:32:32;;;;;;;6.18;4.75;;;;;;;30.60;52.23;101157.31;4148129;28;20046;-68
2022/07/02 08:34:37;;;;;;;4.95;4.43;;;;;;;30.60;52.40;101162.97;4147818;28;20071;-68
2022/07/02 08:36:38;;;;;;;6.15;4.70;;;;;;;30.60;52.44;101163.78;4148272;28;20042;-69
2022/07/02 08:38:40;;;;;;;4.50;4.10;;;;;;;30.63;52.44;101162.28;4147633;28;20046;-68
2022/07/02 08:40:45;;;;;;;4.72;4.20;;;;;;;30.61;51.97;101153.34;4147857;28;20834;-69
2022/07/02 08:42:47;;;;;;;5.75;4.55;;;;;;;30.60;52.02;101158.13;4147287;28;20116;-69
2022/07/02 08:44:52;;;;;;;4.93;4.35;;;;;;;30.59;52.24;101161.31;4147865;28;20100;-68
2022/07/02 08:46:55;;;;;;;4.53;4.13;;;;;;;30.59;52.00;101172.63;4147905;28;20103;-69
2022/07/02 08:49:00;;;;;;;6.45;5.00;;;;;;;30.60;52.26;101174.25;4147462;28;20038;-69
2022/07/02 08:51:02;;;;;;;5.80;4.55;;;;;;;30.59;52.58;101172.63;4147304;28;20034;-68
2022/07/02 08:53:05;;;;;;;7.18;4.40;;;;;;;30.59;52.53;101169.78;4148020;28;20038;-68
2022/07/02 08:55:07;;;;;;;4.70;3.95;;;;;;;30.59;52.41;101179.09;4151023;28;20046;-69
2022/07/02 08:57:12;;;;;;;6.45;4.78;;;;;;;30.60;52.17;101188.38;4151001;28;20100;-69
2022/07/02 08:59:14;;;;;;;5.18;4.18;;;;;;;30.61;52.37;101192.88;4150751;28;20042;-68
2022/07/02 09:01:15;;;;;;;5.60;4.53;;;;;;;30.60;52.41;101191.22;4151105;28;20038;-69
2022/07/02 09:03:19;;;;;;;4.43;4.00;;;;;;;30.59;52.39;101184.75;4150886;28;20034;-69
2022/07/02 09:05:21;;;;;;;4.87;4.00;;;;;;;30.58;52.00;101194.38;4150863;28;20049;-69
2022/07/02 09:07:23;;;;;;;4.43;3.95;;;;;;;30.57;52.19;101198.38;4150719;28;20096;-69
2022/07/02 09:09:27;;;;;;;4.65;3.75;;;;;;;30.55;52.03;101205.53;4150618;28;20092;-69
2022/07/02 09:11:30;;;;;;;4.80;4.32;;;;;;;30.58;52.18;101216.16;4150460;28;20489;-69
2022/07/02 09:13:31;;;;;;;5.00;4.03;;;;;;;30.59;52.12;101206.50;4150701;28;20108;-68
2022/07/02 09:15:34;;;;;;;5.28;3.83;;;;;;;30.54;51.95;101203.88;4150663;28;20489;-68
2022/07/02 09:17:43;;;;;;;5.47;4.10;;;;;;;30.57;51.70;101220.16;4150579;28;20547;-68
2022/07/02 09:19:44;;;;;;;5.40;4.22;;;;;;;30.50;52.02;101211.38;4150395;28;20041;-69
2022/07/02 09:21:51;;;;;;;5.07;3.75;;;;;;;30.56;52.03;101224.13;4150182;28;20096;-69
2022/07/02 09:23:52;;;;;;;7.35;4.30;;;;;;;30.57;51.80;101222.97;4150976;28;20087;-68
2022/07/02 09:25:54;;;;;;;6.35;4.05;;;;;;;30.57;51.87;101220.16;4150839;28;20042;-68
2022/07/02 09:28:04;;;;;;;5.15;4.00;;;;;;;30.54;51.46;101220.81;4150400;28;20038;-68
2022/07/02 09:30:07;;;;;;;6.20;4.47;;;;;;;30.55;51.55;101223.31;4150256;28;20045;-68
2022/07/02 09:32:10;;;;;;;5.43;4.07;;;;;;;30.33;51.28;101182.09;4149581;28;20152;-68